Time;durP1;ratioP1;P1;durP2;ratioP2;P2;SDS_P1;SDS_P2;PMS_P1;PMS_P2;Temp;Humidity;BMP_temperature;BMP_pressure;BME280_temperature;BME280_humidity;BME280_pressure;Samples;Min_cycle;Max_cycle;Signal;HPM_P1;HPM_P2
2021/05/06 00:14:28;;;;;;;6.20;5.80;;;17.10;23.90;;;;;;5012182;28;20451;-73
2021/05/06 00:29:55;;;;;;;6.47;6.07;;;17.10;23.90;;;;;;5012718;28;20431;-73
2021/05/06 00:33:19;;;;;;;6.90;6.47;;;17.10;24.00;;;;;;5012076;28;20411;-73
2021/05/06 00:35:47;;;;;;;6.83;6.33;;;17.10;24.00;;;;;;5012216;28;20786;-73
2021/05/06 00:38:35;;;;;;;5.90;5.50;;;17.10;24.10;;;;;;5011921;28;20666;-73
2021/05/06 00:41:37;;;;;;;5.50;5.10;;;17.10;24.10;;;;;;5011830;28;20423;-73
2021/05/06 00:57:31;;;;;;;6.27;5.87;;;17.10;24.20;;;;;;5011685;28;20452;-73
2021/05/06 01:05:36;;;;;;;6.00;5.60;;;17.10;24.10;;;;;;5011659;28;20419;-74
2021/05/06 01:08:26;;;;;;;6.83;6.33;;;17.10;24.20;;;;;;5011731;28;20946;-73
2021/05/06 01:13:22;;;;;;;6.50;6.00;;;17.10;24.30;;;;;;5015969;28;20412;-73
2021/05/06 01:15:48;;;;;;;6.20;5.70;;;17.10;24.30;;;;;;5014087;28;20527;-73
2021/05/06 01:18:13;;;;;;;5.93;5.53;;;17.10;24.30;;;;;;5015506;28;20546;-73
2021/05/06 01:20:42;;;;;;;6.37;5.97;;;17.10;24.30;;;;;;5015696;28;20180;-73
2021/05/06 01:23:08;;;;;;;6.13;5.73;;;17.10;24.40;;;;;;5015718;28;20173;-73
2021/05/06 01:25:33;;;;;;;6.43;6.03;;;17.10;24.30;;;;;;5015431;28;20464;-74
2021/05/06 01:28:20;;;;;;;6.73;6.20;;;17.10;24.30;;;;;;5015392;28;20183;-73
2021/05/06 01:30:51;;;;;;;5.70;5.30;;;17.10;24.40;;;;;;5015749;28;20652;-73
2021/05/06 01:35:59;;;;;;;6.03;5.63;;;17.10;24.40;;;;;;5015225;28;20809;-73
2021/05/06 01:38:39;;;;;;;6.40;5.90;;;17.10;24.40;;;;;;5015165;28;20459;-73
2021/05/06 02:01:52;;;;;;;6.60;6.20;;;17.10;24.50;;;;;;5015254;28;20428;-73
2021/05/06 02:04:17;;;;;;;5.50;5.20;;;17.10;24.60;;;;;;5014805;28;20404;-73
2021/05/06 02:06:43;;;;;;;5.20;4.90;;;17.10;24.60;;;;;;5014505;28;20177;-73
2021/05/06 02:09:09;;;;;;;6.73;6.33;;;17.10;24.60;;;;;;5014664;28;20247;-73
2021/05/06 02:11:34;;;;;;;5.53;5.23;;;17.00;24.60;;;;;;5014694;28;20181;-73
2021/05/06 02:14:00;;;;;;;5.83;5.43;;;17.10;24.60;;;;;;5014552;28;20173;-73
2021/05/06 02:16:38;;;;;;;5.80;5.40;;;17.10;24.70;;;;;;5014510;28;20208;-73
2021/05/06 02:19:05;;;;;;;5.50;5.17;;;17.10;24.60;;;;;;5014501;28;20463;-73
2021/05/06 02:21:31;;;;;;;5.30;5.00;;;17.10;24.60;;;;;;5013466;28;20451;-73
2021/05/06 02:23:57;;;;;;;5.70;5.37;;;17.10;24.60;;;;;;5014227;28;20448;-73
2021/05/06 02:26:23;;;;;;;5.80;5.40;;;17.10;24.60;;;;;;5013081;28;20177;-73
2021/05/06 02:28:49;;;;;;;5.97;5.60;;;17.10;24.60;;;;;;5014250;28;20245;-73
2021/05/06 02:31:14;;;;;;;5.80;5.50;;;17.10;24.70;;;;;;5014379;28;20425;-73
2021/05/06 02:33:41;;;;;;;5.07;4.77;;;17.00;24.60;;;;;;5014205;28;20166;-73
2021/05/06 02:36:07;;;;;;;5.60;5.20;;;17.10;24.70;;;;;;5014033;28;20173;-73
2021/05/06 02:38:33;;;;;;;4.97;4.63;;;17.10;24.70;;;;;;5013962;28;20993;-73
2021/05/06 02:40:58;;;;;;;6.13;5.70;;;17.10;24.70;;;;;;5014160;28;20412;-73
2021/05/06 02:43:24;;;;;;;5.53;5.20;;;17.00;24.70;;;;;;5014013;28;20173;-73
2021/05/06 02:45:49;;;;;;;6.23;5.83;;;17.10;24.70;;;;;;5013865;28;20193;-73
2021/05/06 02:48:15;;;;;;;5.40;5.10;;;17.00;24.60;;;;;;5013823;28;20291;-73
2021/05/06 02:50:45;;;;;;;6.00;5.60;;;17.10;24.60;;;;;;5014076;28;20260;-73
2021/05/06 02:53:14;;;;;;;5.77;5.37;;;17.10;24.70;;;;;;5014079;28;20185;-73
2021/05/06 02:56:50;;;;;;;6.00;5.70;;;17.10;24.70;;;;;;5013731;28;20423;-73
2021/05/06 03:03:49;;;;;;;5.70;5.30;;;17.10;24.70;;;;;;5013752;28;20503;-73
2021/05/06 03:06:25;;;;;;;5.13;4.77;;;17.00;24.70;;;;;;5013585;28;20413;-73
2021/05/06 03:08:56;;;;;;;5.33;5.03;;;17.10;24.80;;;;;;5013875;28;20428;-72
2021/05/06 03:25:07;;;;;;;5.10;4.80;;;17.00;24.80;;;;;;5015073;28;20503;-73
2021/05/06 03:27:33;;;;;;;5.60;5.20;;;17.00;25.40;;;;;;5015133;28;20838;-73
2021/05/06 04:18:27;;;;;;;5.17;4.77;;;17.60;24.60;;;;;;5012414;28;20857;-73
2021/05/06 04:26:35;;;;;;;4.80;4.50;;;18.20;24.00;;;;;;5012119;28;20451;-73
2021/05/06 04:37:04;;;;;;;5.60;4.93;;;18.40;23.30;;;;;;5012273;28;20478;-74
2021/05/06 04:39:50;;;;;;;4.70;4.27;;;18.40;23.30;;;;;;5012056;28;21069;-74
2021/05/06 04:55:52;;;;;;;4.93;4.43;;;18.00;22.50;;;;;;5012629;28;20415;-74
2021/05/06 05:03:58;;;;;;;4.07;3.83;;;17.70;22.50;;;;;;5012461;28;20488;-74
2021/05/06 05:06:28;;;;;;;3.57;3.37;;;17.60;22.50;;;;;;5011985;28;20827;-74
2021/05/06 05:11:53;;;;;;;4.50;4.20;;;17.40;22.50;;;;;;5013337;28;20496;-75
2021/05/06 05:27:22;;;;;;;3.83;3.60;;;17.00;22.60;;;;;;5011839;28;20428;-76
2021/05/06 05:29:48;;;;;;;3.60;3.40;;;16.90;22.60;;;;;;5011835;28;20320;-76
2021/05/06 05:32:14;;;;;;;3.63;3.43;;;16.90;22.70;;;;;;5011753;28;20416;-75
2021/05/06 05:34:43;;;;;;;3.90;3.67;;;16.80;22.80;;;;;;5011735;28;20180;-76
2021/05/06 05:37:15;;;;;;;3.40;3.30;;;16.80;22.90;;;;;;5011458;28;20451;-74
2021/05/06 05:39:57;;;;;;;3.60;3.40;;;16.80;22.90;;;;;;5011503;28;20849;-73
2021/05/06 05:42:36;;;;;;;3.73;3.53;;;16.70;22.90;;;;;;5010429;28;20503;-72
2021/05/06 05:55:30;;;;;;;4.03;3.73;;;16.60;23.70;;;;;;5011667;28;20411;-77
2021/05/06 05:57:55;;;;;;;3.73;3.43;;;16.60;23.70;;;;;;5015915;28;20456;-75
2021/05/06 06:00:21;;;;;;;3.70;3.50;;;16.50;23.50;;;;;;5015097;28;20632;-74
2021/05/06 06:02:46;;;;;;;4.87;4.20;;;16.50;24.20;;;;;;5013978;28;20203;-73
2021/05/06 06:05:12;;;;;;;3.47;3.27;;;16.50;23.90;;;;;;5014817;28;20529;-74
2021/05/06 06:07:38;;;;;;;3.73;3.43;;;16.50;23.80;;;;;;5014808;28;20177;-74
2021/05/06 06:10:05;;;;;;;4.10;3.50;;;16.50;23.70;;;;;;5013576;28;20443;-75
2021/05/06 06:12:30;;;;;;;4.50;4.10;;;16.50;23.50;;;;;;5014542;28;20177;-73
2021/05/06 06:15:08;;;;;;;3.60;3.33;;;16.60;23.50;;;;;;5014635;28;20436;-74
2021/05/06 06:17:39;;;;;;;4.13;3.83;;;16.60;23.40;;;;;;5014461;28;20197;-72
2021/05/06 06:20:05;;;;;;;4.10;3.80;;;16.60;23.40;;;;;;5014570;28;20429;-71
2021/05/06 06:22:31;;;;;;;3.80;3.50;;;16.60;23.30;;;;;;5014476;28;20895;-72
2021/05/06 06:24:58;;;;;;;4.03;3.73;;;16.60;23.30;;;;;;5013159;28;20431;-73
2021/05/06 06:27:23;;;;;;;3.90;3.60;;;16.60;23.20;;;;;;5014379;28;20177;-74
2021/05/06 06:29:49;;;;;;;3.60;3.30;;;16.60;23.30;;;;;;5014184;28;20777;-72
2021/05/06 06:32:16;;;;;;;4.17;3.70;;;16.60;23.40;;;;;;5014575;28;20174;-76
2021/05/06 06:34:42;;;;;;;4.03;3.73;;;16.60;23.40;;;;;;5014240;28;20578;-72
2021/05/06 06:37:08;;;;;;;4.00;3.37;;;16.50;23.40;;;;;;5011288;28;20502;-72
2021/05/06 06:39:36;;;;;;;3.30;3.00;;;16.50;23.50;;;;;;5009804;28;20580;-73
2021/05/06 06:42:02;;;;;;;3.30;3.00;;;16.50;23.50;;;;;;5013132;28;20197;-73
2021/05/06 06:44:29;;;;;;;4.63;4.20;;;16.50;23.50;;;;;;5013864;28;20589;-74
2021/05/06 06:47:01;;;;;;;7.20;3.70;;;16.40;23.60;;;;;;5013974;28;20638;-73
2021/05/06 06:49:32;;;;;;;3.13;2.93;;;16.40;23.60;;;;;;5014142;28;20981;-72
2021/05/06 06:51:58;;;;;;;4.23;3.43;;;16.50;23.80;;;;;;5014115;28;20397;-72
2021/05/06 06:54:25;;;;;;;3.33;3.10;;;16.70;24.30;;;;;;5009958;28;20772;-74
2021/05/06 06:56:51;;;;;;;3.87;3.47;;;16.90;23.90;;;;;;5013117;28;20745;-75
2021/05/06 06:59:17;;;;;;;3.53;3.33;;;17.10;23.80;;;;;;5011815;28;20470;-76
2021/05/06 07:01:42;;;;;;;3.50;3.20;;;17.20;23.60;;;;;;5013439;28;20196;-73
2021/05/06 07:04:08;;;;;;;3.40;3.20;;;17.40;23.50;;;;;;5013751;28;20434;-73
2021/05/06 07:06:33;;;;;;;3.47;3.17;;;17.60;23.50;;;;;;5013152;28;20212;-73
2021/05/06 07:08:59;;;;;;;3.10;2.90;;;17.70;23.20;;;;;;5012715;28;20231;-75
2021/05/06 07:11:25;;;;;;;3.00;2.87;;;17.80;23.10;;;;;;5013884;28;20174;-72
2021/05/06 07:13:50;;;;;;;3.43;3.13;;;18.00;23.10;;;;;;5013467;28;20173;-73
2021/05/06 07:16:16;;;;;;;3.27;3.00;;;18.10;23.00;;;;;;5013372;28;20197;-73
2021/05/06 07:18:41;;;;;;;3.97;2.90;;;18.20;22.90;;;;;;5013419;28;20205;-72
2021/05/06 07:21:07;;;;;;;3.47;2.73;;;18.30;22.90;;;;;;5013284;28;20165;-71
2021/05/06 07:23:34;;;;;;;3.10;2.90;;;18.30;22.90;;;;;;5013131;28;20704;-72
2021/05/06 07:26:00;;;;;;;3.40;3.20;;;18.30;22.80;;;;;;5013265;28;20166;-72
2021/05/06 07:28:30;;;;;;;4.23;3.93;;;18.40;22.90;;;;;;5013048;28;20432;-73
2021/05/06 07:30:59;;;;;;;2.63;2.53;;;18.40;23.00;;;;;;5013268;28;20416;-73
2021/05/06 07:33:24;;;;;;;3.00;2.80;;;18.40;22.90;;;;;;5013582;28;20427;-73
2021/05/06 07:35:50;;;;;;;2.90;2.70;;;18.40;23.50;;;;;;5013002;28;20404;-72
2021/05/06 07:38:15;;;;;;;2.70;2.53;;;18.40;23.00;;;;;;5013383;28;20209;-72
2021/05/06 07:40:41;;;;;;;3.10;2.90;;;18.40;23.00;;;;;;5014310;28;20512;-72
2021/05/06 07:43:07;;;;;;;2.80;2.60;;;18.40;23.10;;;;;;5014691;28;20252;-73
2021/05/06 07:45:33;;;;;;;3.20;3.00;;;18.40;23.10;;;;;;5014947;28;20158;-71
2021/05/06 07:48:00;;;;;;;2.93;2.73;;;18.30;23.00;;;;;;5014395;28;20527;-73
2021/05/06 07:50:27;;;;;;;2.70;2.50;;;18.30;23.00;;;;;;5012837;28;20910;-73
2021/05/06 07:53:00;;;;;;;3.00;2.90;;;18.30;23.10;;;;;;5013141;28;20503;-73
2021/05/06 07:55:26;;;;;;;3.80;3.20;;;18.30;23.00;;;;;;5013194;28;20413;-72
2021/05/06 07:57:52;;;;;;;2.83;2.57;;;18.40;23.10;;;;;;5012597;28;20448;-72
2021/05/06 08:00:20;;;;;;;2.63;2.53;;;18.30;23.10;;;;;;5012792;28;20209;-73
2021/05/06 08:02:48;;;;;;;3.13;3.03;;;18.30;23.10;;;;;;5010588;28;20182;-72
2021/05/06 08:05:14;;;;;;;3.10;2.90;;;18.30;23.10;;;;;;5012128;28;20412;-72
2021/05/06 08:07:40;;;;;;;3.00;2.90;;;18.30;23.20;;;;;;5012635;28;20810;-72
2021/05/06 08:10:06;;;;;;;2.73;2.63;;;18.30;23.20;;;;;;5012551;28;20320;-72
2021/05/06 08:12:32;;;;;;;3.30;3.07;;;18.30;23.20;;;;;;5012243;28;20177;-74
2021/05/06 08:14:57;;;;;;;2.73;2.60;;;18.30;23.20;;;;;;5012153;28;20798;-72
2021/05/06 08:17:24;;;;;;;3.37;3.23;;;18.30;23.30;;;;;;5012182;28;20197;-72
2021/05/06 08:19:49;;;;;;;3.07;2.97;;;18.30;23.30;;;;;;5010954;28;20230;-72
2021/05/06 08:22:16;;;;;;;3.00;2.90;;;18.30;23.40;;;;;;5012378;28;20893;-72
2021/05/06 08:24:42;;;;;;;3.67;3.47;;;18.20;23.30;;;;;;5012487;28;20166;-71
2021/05/06 08:27:09;;;;;;;3.23;3.03;;;18.20;23.40;;;;;;5011934;28;20703;-72
2021/05/06 08:29:34;;;;;;;3.60;3.10;;;18.20;23.40;;;;;;5012221;28;20424;-72
2021/05/06 08:32:00;;;;;;;3.10;2.90;;;18.20;23.50;;;;;;5012167;28;20408;-72
2021/05/06 08:34:25;;;;;;;2.90;2.80;;;18.20;23.50;;;;;;5011940;28;20706;-72
2021/05/06 08:40:13;;;;;;;3.80;3.43;;;18.10;23.60;;;;;;4993561;28;20195;-72
2021/05/06 08:42:39;;;;;;;3.07;2.97;;;18.10;23.70;;;;;;5010181;28;20507;-72
2021/05/06 08:45:06;;;;;;;3.33;3.13;;;18.00;23.60;;;;;;5011850;28;20732;-71
2021/05/06 08:47:32;;;;;;;2.80;2.70;;;18.00;23.70;;;;;;5012138;28;20511;-71
2021/05/06 08:49:59;;;;;;;3.37;3.17;;;18.00;23.80;;;;;;5011511;28;20439;-71
2021/05/06 08:52:26;;;;;;;2.90;2.80;;;18.00;23.70;;;;;;5012155;28;20416;-72
2021/05/06 08:54:54;;;;;;;3.13;2.93;;;18.00;23.80;;;;;;5010610;28;20431;-72
2021/05/06 08:57:21;;;;;;;3.53;3.33;;;17.90;23.80;;;;;;5011406;28;20860;-73
2021/05/06 08:59:47;;;;;;;3.97;3.80;;;17.90;23.80;;;;;;5011757;28;20440;-72
2021/05/06 09:02:14;;;;;;;3.57;3.37;;;17.90;23.90;;;;;;5012055;28;20408;-72
2021/05/06 09:04:40;;;;;;;3.30;3.13;;;17.90;23.90;;;;;;5011590;28;20466;-71
2021/05/06 09:07:10;;;;;;;3.87;3.57;;;17.90;23.90;;;;;;5011950;28;20510;-72
2021/05/06 09:09:43;;;;;;;3.20;2.90;;;17.90;23.90;;;;;;5011771;28;20822;-71
2021/05/06 09:12:09;;;;;;;3.60;3.40;;;17.90;23.90;;;;;;5012094;28;20405;-72
2021/05/06 09:14:47;;;;;;;3.47;3.37;;;17.90;23.90;;;;;;5010525;28;20454;-71
2021/05/06 09:17:29;;;;;;;3.00;2.90;;;17.90;24.00;;;;;;5011585;28;20212;-73
2021/05/06 09:20:12;;;;;;;3.27;3.07;;;17.80;23.90;;;;;;5011411;28;20424;-73
2021/05/06 09:22:42;;;;;;;2.93;2.83;;;17.80;24.00;;;;;;5010631;28;20479;-71
2021/05/06 09:25:25;;;;;;;3.50;3.37;;;17.80;24.00;;;;;;5011520;28;20778;-73
2021/05/06 09:28:15;;;;;;;2.90;2.70;;;17.80;24.00;;;;;;5011694;28;20412;-72
2021/05/06 09:31:08;;;;;;;3.20;3.10;;;17.80;24.10;;;;;;5011547;28;20486;-72
2021/05/06 09:33:39;;;;;;;3.00;2.90;;;17.80;24.10;;;;;;5015304;28;20511;-71
2021/05/06 09:36:09;;;;;;;3.17;3.07;;;17.80;24.10;;;;;;5014929;28;20941;-73
2021/05/06 09:38:37;;;;;;;2.53;2.43;;;17.80;24.20;;;;;;5015296;28;20468;-73
2021/05/06 09:41:04;;;;;;;3.00;2.90;;;17.70;24.20;;;;;;5014962;28;20499;-73
2021/05/06 09:43:32;;;;;;;2.70;2.60;;;17.70;24.10;;;;;;5015378;28;20416;-73
2021/05/06 09:46:01;;;;;;;3.00;2.80;;;17.70;24.20;;;;;;5015037;28;20416;-72
2021/05/06 09:48:28;;;;;;;2.63;2.53;;;17.70;24.30;;;;;;5014681;28;21004;-71
2021/05/06 09:51:00;;;;;;;3.07;2.77;;;17.70;24.20;;;;;;5014109;28;20486;-74
2021/05/06 09:53:29;;;;;;;3.43;3.23;;;17.80;24.30;;;;;;5014809;28;20420;-72
2021/05/06 09:55:57;;;;;;;2.90;2.80;;;17.90;24.20;;;;;;5014603;28;20446;-73
2021/05/06 09:58:25;;;;;;;3.23;3.03;;;18.00;24.10;;;;;;5014959;28;20498;-74
2021/05/06 10:00:52;;;;;;;5.60;3.70;;;18.10;24.10;;;;;;5015024;28;20412;-73
2021/05/06 10:03:20;;;;;;;2.80;2.70;;;18.10;24.00;;;;;;5014534;28;20415;-71
2021/05/06 10:05:48;;;;;;;3.10;3.00;;;18.30;23.90;;;;;;5014647;28;20786;-72
2021/05/06 10:08:14;;;;;;;2.67;2.57;;;18.40;23.90;;;;;;5014774;28;20459;-73
2021/05/06 10:10:41;;;;;;;2.80;2.70;;;18.50;23.80;;;;;;5014700;28;20420;-73
2021/05/06 10:13:10;;;;;;;2.70;2.50;;;18.50;23.70;;;;;;5014487;28;20416;-73
2021/05/06 10:15:36;;;;;;;2.90;2.77;;;18.60;23.70;;;;;;5014480;28;20436;-72
2021/05/06 10:18:02;;;;;;;2.80;2.70;;;18.60;23.60;;;;;;5014553;28;20456;-75
2021/05/06 10:20:28;;;;;;;2.40;2.30;;;18.70;23.60;;;;;;5013682;28;20427;-72
2021/05/06 10:22:55;;;;;;;2.63;2.53;;;18.70;24.20;;;;;;5015437;28;20411;-72
2021/05/06 10:25:22;;;;;;;2.80;2.60;;;18.70;23.60;;;;;;5014765;28;20447;-71
2021/05/06 10:27:49;;;;;;;2.83;2.73;;;18.70;23.70;;;;;;5014644;28;20673;-72
2021/05/06 10:30:16;;;;;;;2.33;2.23;;;18.70;23.80;;;;;;5014769;28;20857;-72
2021/05/06 10:32:43;;;;;;;3.43;3.13;;;18.70;23.70;;;;;;5014416;28;20428;-73
2021/05/06 10:35:15;;;;;;;2.40;2.30;;;18.70;23.70;;;;;;5014179;28;20420;-73
2021/05/06 10:37:45;;;;;;;2.10;2.00;;;18.70;23.80;;;;;;5014430;28;20460;-73
2021/05/06 10:40:20;;;;;;;1.83;1.83;;;18.70;23.80;;;;;;5014225;28;20428;-72
2021/05/06 10:42:46;;;;;;;2.80;2.60;;;18.70;23.80;;;;;;5013375;28;20422;-71
2021/05/06 10:45:12;;;;;;;2.63;2.43;;;18.70;23.80;;;;;;5014134;28;20423;-72
2021/05/06 10:47:45;;;;;;;2.17;2.10;;;18.70;23.80;;;;;;5013741;28;20412;-72
2021/05/06 10:50:20;;;;;;;2.77;2.60;;;18.70;23.80;;;;;;5014152;28;20204;-73
2021/05/06 10:52:51;;;;;;;3.00;2.90;;;18.60;23.80;;;;;;5013043;28;20953;-72
2021/05/06 10:55:38;;;;;;;2.60;2.50;;;18.70;23.80;;;;;;5013490;28;20419;-72
2021/05/06 10:58:25;;;;;;;2.80;2.70;;;18.60;23.80;;;;;;5013152;28;20455;-73
2021/05/06 11:01:08;;;;;;;2.70;2.60;;;18.60;23.80;;;;;;5013692;28;20458;-73
2021/05/06 11:03:34;;;;;;;2.00;1.90;;;18.60;23.80;;;;;;5013930;28;20392;-72
2021/05/06 11:06:32;;;;;;;2.47;2.37;;;18.60;23.90;;;;;;5004938;28;20411;-72
2021/05/06 11:08:58;;;;;;;2.90;2.70;;;18.60;24.00;;;;;;5012000;28;21012;-72
2021/05/06 11:11:23;;;;;;;2.40;2.30;;;18.60;24.00;;;;;;5013677;28;20405;-72
2021/05/06 11:14:02;;;;;;;2.50;2.40;;;18.60;24.10;;;;;;5013585;28;20609;-72
2021/05/06 11:16:28;;;;;;;2.80;2.70;;;18.50;24.10;;;;;;5013158;28;20173;-73
2021/05/06 11:18:55;;;;;;;2.33;2.23;;;18.50;24.10;;;;;;5013036;28;20868;-74
2021/05/06 11:21:48;;;;;;;2.20;2.10;;;18.50;24.10;;;;;;5013529;28;20197;-73
2021/05/06 11:24:26;;;;;;;2.30;2.20;;;18.50;24.20;;;;;;5013637;28;20417;-73
2021/05/06 11:27:20;;;;;;;2.63;2.53;;;18.50;24.20;;;;;;5013151;28;20423;-73
2021/05/06 11:29:47;;;;;;;2.30;2.20;;;18.40;24.20;;;;;;5013342;28;20437;-73
2021/05/06 11:32:23;;;;;;;2.10;2.00;;;18.40;24.30;;;;;;5013197;28;20751;-72
2021/05/06 11:34:51;;;;;;;2.60;2.50;;;18.30;24.30;;;;;;5013396;28;20409;-73
2021/05/06 11:37:20;;;;;;;3.00;2.90;;;18.30;24.40;;;;;;5012932;28;20463;-74
2021/05/06 11:39:54;;;;;;;2.40;2.30;;;18.30;24.50;;;;;;5012935;28;20444;-75
2021/05/06 11:42:21;;;;;;;2.37;2.17;;;18.30;24.50;;;;;;5013323;28;20430;-73
2021/05/06 11:45:06;;;;;;;2.20;2.10;;;18.20;24.40;;;;;;5012962;28;20826;-72
2021/05/06 11:47:31;;;;;;;2.40;2.30;;;18.20;24.40;;;;;;5013149;28;20404;-74
2021/05/06 11:49:57;;;;;;;2.57;2.40;;;18.20;24.40;;;;;;5013334;28;20428;-73
2021/05/06 11:52:32;;;;;;;2.37;2.27;;;18.20;24.50;;;;;;5012963;28;20184;-72
2021/05/06 11:54:58;;;;;;;2.30;2.10;;;18.20;24.50;;;;;;5013327;28;20184;-73
2021/05/06 11:57:23;;;;;;;2.07;1.97;;;18.20;24.50;;;;;;5014579;28;21129;-73
2021/05/06 12:03:11;;;;;;;2.20;2.10;;;18.10;24.50;;;;;;5010375;28;20177;-72
2021/05/06 12:05:52;;;;;;;2.10;2.00;;;18.10;24.60;;;;;;5013759;28;20416;-72
2021/05/06 12:08:20;;;;;;;2.77;2.57;;;18.10;24.60;;;;;;5013412;28;20251;-72
2021/05/06 12:10:45;;;;;;;1.97;1.90;;;18.10;24.60;;;;;;5012979;28;20487;-72
2021/05/06 12:13:11;;;;;;;2.00;1.90;;;18.10;24.60;;;;;;5012476;28;20510;-73
2021/05/06 12:15:37;;;;;;;2.30;2.20;;;18.10;24.60;;;;;;5011967;28;20723;-73
2021/05/06 12:18:22;;;;;;;2.30;2.20;;;18.10;24.70;;;;;;5012506;28;20239;-73
2021/05/06 12:20:56;;;;;;;2.30;2.20;;;18.00;24.60;;;;;;5012974;28;20928;-73
2021/05/06 12:23:24;;;;;;;2.27;2.17;;;18.00;24.60;;;;;;5012250;28;20411;-73
2021/05/06 12:25:50;;;;;;;2.60;2.50;;;18.00;24.70;;;;;;5012382;28;20462;-73
2021/05/06 12:28:16;;;;;;;2.30;2.20;;;18.10;24.80;;;;;;5012278;28;20830;-73
2021/05/06 12:30:42;;;;;;;2.60;2.50;;;18.10;24.80;;;;;;5012154;28;20176;-73
2021/05/06 12:33:08;;;;;;;2.40;2.20;;;18.00;24.80;;;;;;5012405;28;20978;-73
2021/05/06 12:35:49;;;;;;;2.20;2.10;;;18.00;24.80;;;;;;5012027;28;20212;-73
2021/05/06 12:38:15;;;;;;;2.73;2.63;;;18.00;24.70;;;;;;5011848;28;20658;-73
2021/05/06 12:40:41;;;;;;;2.77;2.67;;;18.00;24.70;;;;;;5010871;28;20495;-72
2021/05/06 12:43:28;;;;;;;2.50;2.40;;;18.00;24.80;;;;;;5012221;28;20504;-75
2021/05/06 12:46:26;;;;;;;2.37;2.27;;;18.00;24.90;;;;;;5011813;28;20165;-75
2021/05/06 12:48:55;;;;;;;2.67;2.53;;;17.90;24.90;;;;;;5015305;28;20445;-73
2021/05/06 12:51:34;;;;;;;2.87;2.67;;;17.90;24.90;;;;;;5011825;28;20491;-74
2021/05/06 12:54:10;;;;;;;2.40;2.30;;;18.00;24.90;;;;;;5011929;28;20467;-74
2021/05/06 12:56:39;;;;;;;2.50;2.40;;;17.90;24.90;;;;;;5011662;28;20522;-74
2021/05/06 12:59:28;;;;;;;2.63;2.53;;;17.90;25.50;;;;;;5011432;28;20942;-73
2021/05/06 13:02:09;;;;;;;2.70;2.60;;;17.90;25.00;;;;;;5011734;28;20412;-73
2021/05/06 13:05:01;;;;;;;2.50;2.40;;;18.00;24.90;;;;;;4994139;28;20571;-74
2021/05/06 13:07:28;;;;;;;2.40;2.30;;;18.10;24.90;;;;;;4995363;28;20567;-74
2021/05/06 13:09:54;;;;;;;2.70;2.60;;;18.20;24.70;;;;;;4996156;28;20429;-71
2021/05/06 13:12:23;;;;;;;2.60;2.50;;;18.30;24.70;;;;;;4996127;28;20470;-72
2021/05/06 13:14:51;;;;;;;2.80;2.70;;;18.40;24.60;;;;;;4995731;28;20260;-75
2021/05/06 13:17:32;;;;;;;2.50;2.40;;;18.50;24.50;;;;;;4995848;28;20453;-74
2021/05/06 13:20:13;;;;;;;2.70;2.60;;;18.60;24.40;;;;;;4996045;28;20435;-72
2021/05/06 13:22:38;;;;;;;2.33;2.23;;;18.70;24.40;;;;;;4995877;28;20408;-73
2021/05/06 13:25:04;;;;;;;2.40;2.30;;;18.70;24.40;;;;;;4995741;28;20772;-72
2021/05/06 13:27:30;;;;;;;2.33;2.23;;;18.80;24.30;;;;;;4995934;28;20177;-74
2021/05/06 13:29:58;;;;;;;2.73;2.63;;;18.80;24.20;;;;;;4995493;28;20433;-74
2021/05/06 13:32:41;;;;;;;2.83;2.73;;;18.80;24.20;;;;;;4995878;28;20178;-73
2021/05/06 13:35:15;;;;;;;2.57;2.47;;;18.80;24.20;;;;;;4998462;28;20478;-73
2021/05/06 13:37:44;;;;;;;2.70;2.60;;;18.80;24.20;;;;;;5015116;28;20447;-73
2021/05/06 13:40:10;;;;;;;2.60;2.50;;;18.90;24.80;;;;;;5015140;28;20478;-72
2021/05/06 13:42:37;;;;;;;2.80;2.70;;;18.90;24.40;;;;;;5015082;28;20416;-72
2021/05/06 13:45:04;;;;;;;2.60;2.50;;;18.90;24.40;;;;;;5014783;28;20413;-72
2021/05/06 13:47:30;;;;;;;2.50;2.40;;;18.90;24.40;;;;;;5015109;28;20416;-73
2021/05/06 13:49:56;;;;;;;2.53;2.43;;;18.90;24.40;;;;;;5015093;28;20539;-72
2021/05/06 13:52:24;;;;;;;2.40;2.30;;;18.90;24.40;;;;;;5014829;28;20589;-72
2021/05/06 13:54:51;;;;;;;2.73;2.63;;;18.90;24.50;;;;;;5014762;28;20204;-72
2021/05/06 13:57:17;;;;;;;3.03;2.83;;;18.90;24.50;;;;;;5014664;28;20538;-72
2021/05/06 13:59:43;;;;;;;2.53;2.43;;;18.90;24.50;;;;;;5020615;28;20994;-72
2021/05/06 14:02:08;;;;;;;2.97;2.87;;;18.80;24.40;;;;;;5033307;28;20419;-72
2021/05/06 14:04:34;;;;;;;3.23;3.13;;;18.80;24.50;;;;;;5033693;28;20260;-73
2021/05/06 14:07:00;;;;;;;2.63;2.53;;;18.80;25.20;;;;;;5034119;28;20643;-72
2021/05/06 14:09:25;;;;;;;3.00;2.90;;;18.80;24.60;;;;;;5034489;28;20219;-74
2021/05/06 14:11:54;;;;;;;2.90;2.80;;;18.80;25.00;;;;;;5035168;28;20172;-80
2021/05/06 14:14:20;;;;;;;2.90;2.80;;;18.80;24.70;;;;;;5034275;28;20184;-72
2021/05/06 14:16:46;;;;;;;2.80;2.70;;;18.80;24.80;;;;;;5034334;28;20407;-72
2021/05/06 14:19:13;;;;;;;3.10;3.00;;;18.80;24.90;;;;;;5032966;28;20573;-72
2021/05/06 14:21:40;;;;;;;3.47;3.27;;;18.70;24.90;;;;;;5034170;28;20411;-72
2021/05/06 14:24:07;;;;;;;3.00;2.90;;;18.70;24.90;;;;;;5034326;28;20412;-73
2021/05/06 14:26:32;;;;;;;2.90;2.80;;;18.70;25.00;;;;;;5034109;28;20805;-73
2021/05/06 14:28:58;;;;;;;2.67;2.50;;;18.70;25.00;;;;;;5033770;28;20484;-74
2021/05/06 14:31:24;;;;;;;2.70;2.60;;;18.70;25.00;;;;;;5032988;28;20213;-73
2021/05/06 14:33:50;;;;;;;2.73;2.63;;;18.60;24.90;;;;;;5034143;28;20828;-72
2021/05/06 14:36:15;;;;;;;2.83;2.73;;;18.60;25.00;;;;;;5026336;28;20182;-74
2021/05/06 14:38:41;;;;;;;2.90;2.80;;;18.60;25.10;;;;;;5013994;28;20211;-72
2021/05/06 14:41:07;;;;;;;3.03;2.93;;;18.60;25.20;;;;;;5014110;28;20170;-72
2021/05/06 14:43:34;;;;;;;2.63;2.53;;;18.50;25.10;;;;;;5013829;28;20911;-72
2021/05/06 14:46:00;;;;;;;3.20;3.10;;;18.50;25.10;;;;;;5014001;28;20404;-72
2021/05/06 14:48:26;;;;;;;2.70;2.60;;;18.50;25.20;;;;;;5014015;28;20463;-72
2021/05/06 14:50:51;;;;;;;2.90;2.70;;;18.50;25.20;;;;;;5013779;28;21139;-73
2021/05/06 14:53:17;;;;;;;3.07;2.87;;;18.40;25.20;;;;;;5013809;28;20200;-72
2021/05/06 14:55:43;;;;;;;2.50;2.50;;;18.40;25.20;;;;;;5013730;28;20411;-72
2021/05/06 14:58:09;;;;;;;2.93;2.83;;;18.40;25.30;;;;;;5013500;28;20205;-72
2021/05/06 15:00:35;;;;;;;2.70;2.60;;;18.40;25.30;;;;;;5014146;28;20540;-73
2021/05/06 15:03:02;;;;;;;3.00;2.80;;;18.40;25.30;;;;;;5013858;28;20174;-73
2021/05/06 15:05:30;;;;;;;2.80;2.70;;;18.40;25.40;;;;;;5013318;28;20405;-73
2021/05/06 15:07:57;;;;;;;2.50;2.40;;;18.40;25.50;;;;;;5013881;28;20413;-73
2021/05/06 15:10:23;;;;;;;2.37;2.27;;;18.40;25.50;;;;;;5012516;28;20474;-72
2021/05/06 15:12:49;;;;;;;2.40;2.30;;;18.30;25.50;;;;;;5013490;28;20416;-73
2021/05/06 15:15:16;;;;;;;2.30;2.20;;;18.30;25.50;;;;;;5012464;28;20942;-73
2021/05/06 15:17:42;;;;;;;2.50;2.40;;;18.30;25.60;;;;;;5012289;28;20466;-72
2021/05/06 15:20:09;;;;;;;2.27;2.17;;;18.30;25.50;;;;;;5013073;28;20439;-73
2021/05/06 15:22:35;;;;;;;2.80;2.70;;;18.30;25.70;;;;;;5013341;28;20412;-73
2021/05/06 15:25:00;;;;;;;2.40;2.40;;;18.30;25.60;;;;;;5013234;28;20417;-73
2021/05/06 15:27:26;;;;;;;2.40;2.30;;;18.20;25.50;;;;;;5013112;28;20774;-73
2021/05/06 15:29:52;;;;;;;2.57;2.47;;;18.20;25.60;;;;;;5011609;28;20247;-72
2021/05/06 15:32:18;;;;;;;2.50;2.40;;;18.20;25.70;;;;;;5012268;28;20178;-72
2021/05/06 15:34:43;;;;;;;2.80;2.60;;;18.30;26.20;;;;;;5013239;28;20175;-72
2021/05/06 15:37:09;;;;;;;6.30;2.57;;;18.30;26.40;;;;;;5012901;28;20899;-71
2021/05/06 15:39:38;;;;;;;3.00;2.80;;;18.30;26.00;;;;;;5013293;28;20190;-73
2021/05/06 15:42:05;;;;;;;2.80;2.60;;;18.40;26.00;;;;;;5012969;28;20540;-73
2021/05/06 15:44:31;;;;;;;2.67;2.57;;;18.40;26.70;;;;;;5011935;28;20507;-73
2021/05/06 15:47:01;;;;;;;6.83;2.50;;;18.40;27.50;;;;;;5013035;28;20404;-72
2021/05/06 15:49:35;;;;;;;4.50;2.50;;;18.40;27.10;;;;;;5012972;28;20562;-72
2021/05/06 15:52:02;;;;;;;2.97;2.77;;;18.40;27.30;;;;;;5013178;28;20424;-72
2021/05/06 15:54:28;;;;;;;2.63;2.53;;;18.20;27.70;;;;;;5013011;28;20420;-72
2021/05/06 15:56:54;;;;;;;2.40;2.30;;;18.20;27.80;;;;;;5012810;28;20408;-72
2021/05/06 15:59:20;;;;;;;2.60;2.50;;;18.10;27.70;;;;;;5013309;28;20467;-72
2021/05/06 16:01:46;;;;;;;2.47;2.27;;;18.10;28.00;;;;;;5013440;28;20170;-72
2021/05/06 16:04:14;;;;;;;2.07;1.97;;;18.00;27.70;;;;;;5013723;28;20484;-73
2021/05/06 16:06:39;;;;;;;2.33;2.23;;;18.10;27.80;;;;;;5013928;28;20165;-72
2021/05/06 16:09:06;;;;;;;2.53;2.37;;;18.10;27.70;;;;;;5014222;28;20803;-72
2021/05/06 16:11:31;;;;;;;2.40;2.30;;;18.10;27.70;;;;;;5013103;28;20177;-73
2021/05/06 16:13:58;;;;;;;2.30;2.20;;;18.10;27.70;;;;;;5012707;28;20504;-72
2021/05/06 16:16:24;;;;;;;2.30;2.20;;;18.10;27.60;;;;;;5011257;28;20448;-72
2021/05/06 16:18:49;;;;;;;2.40;2.30;;;18.10;27.50;;;;;;5012229;28;21022;-73
2021/05/06 16:21:15;;;;;;;2.30;2.20;;;18.10;27.50;;;;;;5012529;28;20624;-73
2021/05/06 16:23:41;;;;;;;2.80;2.60;;;18.10;27.40;;;;;;5012537;28;20205;-72